sensor_id;sensor_type;location;lat;lon;timestamp;temperature;humidity
1830;DHT22;914;48.118;11.600;2022-12-07T00:03:45;6.10;99.90
1830;DHT22;914;48.118;11.600;2022-12-07T00:06:13;6.10;99.90
1830;DHT22;914;48.118;11.600;2022-12-07T00:08:39;6.30;99.70
1830;DHT22;914;48.118;11.600;2022-12-07T00:11:07;6.20;99.80
1830;DHT22;914;48.118;11.600;2022-12-07T00:13:34;6.20;99.90
1830;DHT22;914;48.118;11.600;2022-12-07T00:16:02;6.20;99.90
1830;DHT22;914;48.118;11.600;2022-12-07T00:18:28;6.10;99.90
1830;DHT22;914;48.118;11.600;2022-12-07T00:21:44;6.10;99.90
1830;DHT22;914;48.118;11.600;2022-12-07T00:23:46;6.20;99.90
1830;DHT22;914;48.118;11.600;2022-12-07T00:26:25;6.30;99.90
1830;DHT22;914;48.118;11.600;2022-12-07T00:28:57;6.40;99.40
1830;DHT22;914;48.118;11.600;2022-12-07T00:31:25;6.40;99.90
1830;DHT22;914;48.118;11.600;2022-12-07T00:33:52;6.40;99.90
1830;DHT22;914;48.118;11.600;2022-12-07T00:36:20;6.50;99.20
1830;DHT22;914;48.118;11.600;2022-12-07T00:38:46;6.30;99.50
1830;DHT22;914;48.118;11.600;2022-12-07T00:41:15;6.30;99.70
1830;DHT22;914;48.118;11.600;2022-12-07T00:43:41;6.30;99.30
1830;DHT22;914;48.118;11.600;2022-12-07T00:46:07;6.30;99.80
1830;DHT22;914;48.118;11.600;2022-12-07T00:48:33;6.50;99.50
1830;DHT22;914;48.118;11.600;2022-12-07T00:51:00;6.40;99.10
1830;DHT22;914;48.118;11.600;2022-12-07T00:53:27;6.30;99.40
1830;DHT22;914;48.118;11.600;2022-12-07T00:55:53;6.50;99.00
1830;DHT22;914;48.118;11.600;2022-12-07T00:58:21;6.40;99.10
1830;DHT22;914;48.118;11.600;2022-12-07T01:00:47;6.20;99.50
1830;DHT22;914;48.118;11.600;2022-12-07T01:03:15;6.30;99.80
1830;DHT22;914;48.118;11.600;2022-12-07T01:05:54;6.50;98.90
1830;DHT22;914;48.118;11.600;2022-12-07T01:08:21;6.40;99.20
1830;DHT22;914;48.118;11.600;2022-12-07T01:10:47;6.50;99.20
1830;DHT22;914;48.118;11.600;2022-12-07T01:13:14;6.50;98.90
1830;DHT22;914;48.118;11.600;2022-12-07T01:15:41;6.40;99.10
1830;DHT22;914;48.118;11.600;2022-12-07T01:18:07;6.30;99.30
1830;DHT22;914;48.118;11.600;2022-12-07T01:20:34;6.30;99.30
1830;DHT22;914;48.118;11.600;2022-12-07T01:23:00;6.30;99.10
1830;DHT22;914;48.118;11.600;2022-12-07T01:25:29;6.30;99.20
1830;DHT22;914;48.118;11.600;2022-12-07T01:27:55;6.20;99.30
1830;DHT22;914;48.118;11.600;2022-12-07T01:30:21;6.20;99.60
1830;DHT22;914;48.118;11.600;2022-12-07T01:32:49;6.10;99.60
1830;DHT22;914;48.118;11.600;2022-12-07T01:35:15;6.10;99.70
1830;DHT22;914;48.118;11.600;2022-12-07T01:37:44;6.10;99.80
1830;DHT22;914;48.118;11.600;2022-12-07T01:40:10;6.00;99.70
1830;DHT22;914;48.118;11.600;2022-12-07T01:42:39;6.00;99.80
1830;DHT22;914;48.118;11.600;2022-12-07T01:47:55;6.00;99.80
1830;DHT22;914;48.118;11.600;2022-12-07T01:50:25;5.90;99.90
1830;DHT22;914;48.118;11.600;2022-12-07T01:52:53;6.00;99.70
1830;DHT22;914;48.118;11.600;2022-12-07T01:55:21;6.10;99.70
1830;DHT22;914;48.118;11.600;2022-12-07T01:57:51;6.10;99.70
1830;DHT22;914;48.118;11.600;2022-12-07T02:00:18;6.10;99.40
1830;DHT22;914;48.118;11.600;2022-12-07T02:02:57;6.30;99.00
1830;DHT22;914;48.118;11.600;2022-12-07T02:05:26;6.30;99.00
1830;DHT22;914;48.118;11.600;2022-12-07T02:07:56;6.00;98.60
1830;DHT22;914;48.118;11.600;2022-12-07T02:10:26;6.00;99.50
1830;DHT22;914;48.118;11.600;2022-12-07T02:12:58;6.00;99.70
1830;DHT22;914;48.118;11.600;2022-12-07T02:18:44;6.00;99.30
1830;DHT22;914;48.118;11.600;2022-12-07T02:27:01;6.00;99.70
1830;DHT22;914;48.118;11.600;2022-12-07T02:29:33;5.80;99.80
1830;DHT22;914;48.118;11.600;2022-12-07T02:32:22;5.80;99.90
1830;DHT22;914;48.118;11.600;2022-12-07T02:38:30;5.90;99.90
1830;DHT22;914;48.118;11.600;2022-12-07T02:41:10;5.90;99.90
1830;DHT22;914;48.118;11.600;2022-12-07T02:43:52;6.00;99.90
1830;DHT22;914;48.118;11.600;2022-12-07T02:46:27;6.10;99.90
1830;DHT22;914;48.118;11.600;2022-12-07T02:48:54;6.20;99.70
1830;DHT22;914;48.118;11.600;2022-12-07T02:51:22;6.10;99.60
1830;DHT22;914;48.118;11.600;2022-12-07T02:53:48;6.10;99.70
1830;DHT22;914;48.118;11.600;2022-12-07T03:06:56;5.90;99.80
1830;DHT22;914;48.118;11.600;2022-12-07T03:09:35;5.90;99.90
1830;DHT22;914;48.118;11.600;2022-12-07T03:12:22;6.00;99.90
1830;DHT22;914;48.118;11.600;2022-12-07T03:14:58;6.10;99.90
1830;DHT22;914;48.118;11.600;2022-12-07T03:17:31;6.20;99.80
1830;DHT22;914;48.118;11.600;2022-12-07T03:20:00;6.30;99.40
1830;DHT22;914;48.118;11.600;2022-12-07T03:22:30;6.20;99.40
1830;DHT22;914;48.118;11.600;2022-12-07T03:25:04;6.20;99.50
1830;DHT22;914;48.118;11.600;2022-12-07T03:30:06;6.20;99.80
1830;DHT22;914;48.118;11.600;2022-12-07T03:32:36;6.10;99.80
1830;DHT22;914;48.118;11.600;2022-12-07T03:38:16;6.20;99.90
1830;DHT22;914;48.118;11.600;2022-12-07T03:40:48;6.20;99.70
1830;DHT22;914;48.118;11.600;2022-12-07T03:43:16;6.40;99.50
1830;DHT22;914;48.118;11.600;2022-12-07T03:45:50;6.40;99.20
1830;DHT22;914;48.118;11.600;2022-12-07T03:48:34;6.40;99.10
1830;DHT22;914;48.118;11.600;2022-12-07T03:54:05;6.40;99.00
1830;DHT22;914;48.118;11.600;2022-12-07T03:56:33;6.30;99.10
1830;DHT22;914;48.118;11.600;2022-12-07T03:58:59;6.20;99.20
1830;DHT22;914;48.118;11.600;2022-12-07T04:01:25;6.10;99.60
1830;DHT22;914;48.118;11.600;2022-12-07T04:03:51;6.20;99.40
1830;DHT22;914;48.118;11.600;2022-12-07T04:06:20;6.20;99.60
1830;DHT22;914;48.118;11.600;2022-12-07T04:08:45;6.20;99.80
1830;DHT22;914;48.118;11.600;2022-12-07T04:11:11;6.20;99.60
1830;DHT22;914;48.118;11.600;2022-12-07T04:13:37;6.10;99.60
1830;DHT22;914;48.118;11.600;2022-12-07T04:16:22;6.20;99.80
1830;DHT22;914;48.118;11.600;2022-12-07T04:18:48;6.10;99.90
1830;DHT22;914;48.118;11.600;2022-12-07T04:21:14;6.20;99.90
1830;DHT22;914;48.118;11.600;2022-12-07T04:23:40;6.30;99.60
1830;DHT22;914;48.118;11.600;2022-12-07T04:26:09;6.30;99.70
1830;DHT22;914;48.118;11.600;2022-12-07T04:28:35;6.40;99.10
1830;DHT22;914;48.118;11.600;2022-12-07T04:31:01;6.30;99.30
1830;DHT22;914;48.118;11.600;2022-12-07T04:33:26;6.20;99.50
1830;DHT22;914;48.118;11.600;2022-12-07T04:35:52;6.10;99.70
1830;DHT22;914;48.118;11.600;2022-12-07T04:38:18;5.90;99.70
1830;DHT22;914;48.118;11.600;2022-12-07T04:40:44;6.10;99.90
1830;DHT22;914;48.118;11.600;2022-12-07T04:43:09;6.10;99.90
1830;DHT22;914;48.118;11.600;2022-12-07T04:45:35;6.00;99.90
1830;DHT22;914;48.118;11.600;2022-12-07T04:48:00;6.00;99.90
1830;DHT22;914;48.118;11.600;2022-12-07T04:50:26;6.10;99.90
1830;DHT22;914;48.118;11.600;2022-12-07T04:52:52;6.10;99.90
1830;DHT22;914;48.118;11.600;2022-12-07T04:55:17;6.30;99.70
1830;DHT22;914;48.118;11.600;2022-12-07T04:57:43;6.10;99.70
1830;DHT22;914;48.118;11.600;2022-12-07T05:00:12;6.00;99.90
1830;DHT22;914;48.118;11.600;2022-12-07T05:02:37;5.90;99.90
1830;DHT22;914;48.118;11.600;2022-12-07T05:05:03;5.90;99.90
1830;DHT22;914;48.118;11.600;2022-12-07T05:07:29;5.60;99.90
1830;DHT22;914;48.118;11.600;2022-12-07T05:09:55;5.70;99.90
1830;DHT22;914;48.118;11.600;2022-12-07T05:12:21;5.40;99.90
1830;DHT22;914;48.118;11.600;2022-12-07T05:14:47;5.50;99.90
1830;DHT22;914;48.118;11.600;2022-12-07T05:17:12;5.50;99.90
1830;DHT22;914;48.118;11.600;2022-12-07T05:19:38;5.70;99.90
1830;DHT22;914;48.118;11.600;2022-12-07T05:22:09;5.90;99.90
1830;DHT22;914;48.118;11.600;2022-12-07T05:24:36;5.80;99.90
1830;DHT22;914;48.118;11.600;2022-12-07T05:27:01;5.70;99.90
1830;DHT22;914;48.118;11.600;2022-12-07T05:29:27;5.80;99.90
1830;DHT22;914;48.118;11.600;2022-12-07T05:31:56;5.80;99.90
1830;DHT22;914;48.118;11.600;2022-12-07T05:34:21;5.70;99.90
1830;DHT22;914;48.118;11.600;2022-12-07T05:36:47;5.80;99.90
1830;DHT22;914;48.118;11.600;2022-12-07T05:39:13;5.70;99.90
1830;DHT22;914;48.118;11.600;2022-12-07T05:41:39;5.50;99.90
1830;DHT22;914;48.118;11.600;2022-12-07T05:44:23;5.60;99.90
1830;DHT22;914;48.118;11.600;2022-12-07T05:46:49;5.90;99.90
1830;DHT22;914;48.118;11.600;2022-12-07T05:49:17;5.80;99.90
1830;DHT22;914;48.118;11.600;2022-12-07T05:51:43;5.70;99.90
1830;DHT22;914;48.118;11.600;2022-12-07T05:54:12;5.40;99.90
1830;DHT22;914;48.118;11.600;2022-12-07T05:56:37;5.50;99.90
1830;DHT22;914;48.118;11.600;2022-12-07T05:59:03;5.60;99.90
1830;DHT22;914;48.118;11.600;2022-12-07T06:01:51;5.60;99.90
1830;DHT22;914;48.118;11.600;2022-12-07T06:04:17;5.40;99.90
1830;DHT22;914;48.118;11.600;2022-12-07T06:06:50;5.30;99.90
1830;DHT22;914;48.118;11.600;2022-12-07T06:09:23;5.30;99.90
1830;DHT22;914;48.118;11.600;2022-12-07T06:11:49;5.50;99.90
1830;DHT22;914;48.118;11.600;2022-12-07T06:14:33;5.50;99.90
1830;DHT22;914;48.118;11.600;2022-12-07T06:16:59;5.40;99.90
1830;DHT22;914;48.118;11.600;2022-12-07T06:19:25;5.50;99.90
1830;DHT22;914;48.118;11.600;2022-12-07T06:21:51;5.60;99.90
1830;DHT22;914;48.118;11.600;2022-12-07T06:24:20;5.60;99.90
1830;DHT22;914;48.118;11.600;2022-12-07T06:26:49;5.60;99.90
1830;DHT22;914;48.118;11.600;2022-12-07T06:29:15;5.90;99.90
1830;DHT22;914;48.118;11.600;2022-12-07T06:31:41;5.70;99.70
1830;DHT22;914;48.118;11.600;2022-12-07T06:34:11;5.30;99.90
1830;DHT22;914;48.118;11.600;2022-12-07T06:36:37;5.40;99.90
1830;DHT22;914;48.118;11.600;2022-12-07T06:39:03;5.50;99.90
1830;DHT22;914;48.118;11.600;2022-12-07T06:41:29;5.50;99.90
1830;DHT22;914;48.118;11.600;2022-12-07T06:43:58;5.30;99.90
1830;DHT22;914;48.118;11.600;2022-12-07T06:46:24;5.40;99.90
1830;DHT22;914;48.118;11.600;2022-12-07T06:48:49;5.60;99.90
1830;DHT22;914;48.118;11.600;2022-12-07T06:51:15;5.60;99.90
1830;DHT22;914;48.118;11.600;2022-12-07T06:53:41;5.60;99.90
1830;DHT22;914;48.118;11.600;2022-12-07T06:56:07;5.50;99.90
1830;DHT22;914;48.118;11.600;2022-12-07T06:58:33;5.40;99.90
1830;DHT22;914;48.118;11.600;2022-12-07T07:00:59;5.40;99.90
1830;DHT22;914;48.118;11.600;2022-12-07T07:03:24;5.60;99.90
1830;DHT22;914;48.118;11.600;2022-12-07T07:05:53;5.80;99.90
1830;DHT22;914;48.118;11.600;2022-12-07T07:08:19;5.70;99.90
1830;DHT22;914;48.118;11.600;2022-12-07T07:10:47;5.60;99.90
1830;DHT22;914;48.118;11.600;2022-12-07T07:13:13;5.50;99.90
1830;DHT22;914;48.118;11.600;2022-12-07T07:15:39;5.20;99.90
1830;DHT22;914;48.118;11.600;2022-12-07T07:18:05;5.40;99.90
1830;DHT22;914;48.118;11.600;2022-12-07T07:20:31;5.60;99.90
1830;DHT22;914;48.118;11.600;2022-12-07T07:22:57;5.50;99.90
1830;DHT22;914;48.118;11.600;2022-12-07T07:25:22;5.50;99.90
1830;DHT22;914;48.118;11.600;2022-12-07T07:27:48;5.70;99.90
1830;DHT22;914;48.118;11.600;2022-12-07T07:30:14;5.70;99.90
1830;DHT22;914;48.118;11.600;2022-12-07T07:32:40;5.60;99.90
1830;DHT22;914;48.118;11.600;2022-12-07T07:35:06;5.50;99.50
1830;DHT22;914;48.118;11.600;2022-12-07T07:37:31;5.50;99.80
1830;DHT22;914;48.118;11.600;2022-12-07T07:39:57;5.60;99.70
1830;DHT22;914;48.118;11.600;2022-12-07T07:42:23;5.60;99.90
1830;DHT22;914;48.118;11.600;2022-12-07T07:44:48;5.60;99.90
1830;DHT22;914;48.118;11.600;2022-12-07T07:47:14;5.60;99.90
1830;DHT22;914;48.118;11.600;2022-12-07T07:49:39;5.50;99.90
1830;DHT22;914;48.118;11.600;2022-12-07T07:52:06;5.50;99.90
1830;DHT22;914;48.118;11.600;2022-12-07T07:54:32;5.60;99.90
1830;DHT22;914;48.118;11.600;2022-12-07T07:56:57;5.60;99.90
1830;DHT22;914;48.118;11.600;2022-12-07T07:59:23;5.60;99.90
1830;DHT22;914;48.118;11.600;2022-12-07T08:01:50;5.80;99.90
1830;DHT22;914;48.118;11.600;2022-12-07T08:04:16;5.90;99.90
1830;DHT22;914;48.118;11.600;2022-12-07T08:06:42;5.70;99.90
1830;DHT22;914;48.118;11.600;2022-12-07T08:09:08;5.60;99.90
1830;DHT22;914;48.118;11.600;2022-12-07T08:11:34;5.60;99.90
1830;DHT22;914;48.118;11.600;2022-12-07T08:14:02;5.60;99.90
1830;DHT22;914;48.118;11.600;2022-12-07T08:16:27;5.50;99.90
1830;DHT22;914;48.118;11.600;2022-12-07T08:18:53;5.50;99.90
1830;DHT22;914;48.118;11.600;2022-12-07T08:21:19;6.00;99.90
1830;DHT22;914;48.118;11.600;2022-12-07T08:23:45;6.10;99.70
1830;DHT22;914;48.118;11.600;2022-12-07T08:26:13;5.80;99.60
1830;DHT22;914;48.118;11.600;2022-12-07T08:28:40;6.20;99.50
1830;DHT22;914;48.118;11.600;2022-12-07T08:31:10;5.90;99.40
1830;DHT22;914;48.118;11.600;2022-12-07T08:33:36;5.80;99.90
1830;DHT22;914;48.118;11.600;2022-12-07T08:36:04;6.10;99.60
1830;DHT22;914;48.118;11.600;2022-12-07T08:38:30;5.80;99.50
1830;DHT22;914;48.118;11.600;2022-12-07T08:40:57;5.70;99.40
1830;DHT22;914;48.118;11.600;2022-12-07T08:43:23;5.70;99.90
1830;DHT22;914;48.118;11.600;2022-12-07T08:48:27;5.80;99.70
1830;DHT22;914;48.118;11.600;2022-12-07T08:50:52;6.00;99.60
1830;DHT22;914;48.118;11.600;2022-12-07T08:53:18;5.90;99.20
1830;DHT22;914;48.118;11.600;2022-12-07T08:55:47;6.10;99.50
1830;DHT22;914;48.118;11.600;2022-12-07T08:58:13;5.90;99.50
1830;DHT22;914;48.118;11.600;2022-12-07T09:00:39;5.80;99.80
1830;DHT22;914;48.118;11.600;2022-12-07T09:03:04;5.90;99.60
1830;DHT22;914;48.118;11.600;2022-12-07T09:05:32;5.80;99.50
1830;DHT22;914;48.118;11.600;2022-12-07T09:08:00;5.90;99.20
1830;DHT22;914;48.118;11.600;2022-12-07T09:10:28;5.80;99.50
1830;DHT22;914;48.118;11.600;2022-12-07T09:12:54;5.80;99.70
1830;DHT22;914;48.118;11.600;2022-12-07T09:15:20;5.80;99.60
1830;DHT22;914;48.118;11.600;2022-12-07T09:17:46;6.00;99.30
1830;DHT22;914;48.118;11.600;2022-12-07T09:20:12;6.20;99.20
1830;DHT22;914;48.118;11.600;2022-12-07T09:22:38;6.00;99.30
1830;DHT22;914;48.118;11.600;2022-12-07T09:25:04;6.40;99.20
1830;DHT22;914;48.118;11.600;2022-12-07T09:27:30;6.50;98.10
1830;DHT22;914;48.118;11.600;2022-12-07T09:29:55;6.50;98.70
1830;DHT22;914;48.118;11.600;2022-12-07T09:32:21;6.30;98.80
1830;DHT22;914;48.118;11.600;2022-12-07T09:34:47;6.20;98.90
1830;DHT22;914;48.118;11.600;2022-12-07T09:37:13;6.00;99.00
1830;DHT22;914;48.118;11.600;2022-12-07T09:39:39;6.10;99.20
1830;DHT22;914;48.118;11.600;2022-12-07T09:42:06;6.30;98.80
1830;DHT22;914;48.118;11.600;2022-12-07T09:44:33;6.30;98.70
1830;DHT22;914;48.118;11.600;2022-12-07T09:47:00;6.30;98.70
1830;DHT22;914;48.118;11.600;2022-12-07T09:49:29;6.30;98.60
1830;DHT22;914;48.118;11.600;2022-12-07T09:54:36;6.40;98.50
1830;DHT22;914;48.118;11.600;2022-12-07T09:57:08;6.50;98.60
1830;DHT22;914;48.118;11.600;2022-12-07T09:59:34;6.70;98.50
1830;DHT22;914;48.118;11.600;2022-12-07T10:02:25;6.70;97.60
1830;DHT22;914;48.118;11.600;2022-12-07T10:04:53;7.00;97.90
1830;DHT22;914;48.118;11.600;2022-12-07T10:07:19;7.20;96.60
1830;DHT22;914;48.118;11.600;2022-12-07T10:09:45;6.80;97.00
1830;DHT22;914;48.118;11.600;2022-12-07T10:12:12;6.70;97.40
1830;DHT22;914;48.118;11.600;2022-12-07T10:14:40;6.60;97.60
1830;DHT22;914;48.118;11.600;2022-12-07T10:17:37;6.90;97.70
1830;DHT22;914;48.118;11.600;2022-12-07T10:22:37;7.20;97.10
1830;DHT22;914;48.118;11.600;2022-12-07T10:25:17;7.30;97.20
1830;DHT22;914;48.118;11.600;2022-12-07T10:27:43;7.30;96.80
1830;DHT22;914;48.118;11.600;2022-12-07T10:30:14;7.60;96.10
1830;DHT22;914;48.118;11.600;2022-12-07T10:32:40;7.50;95.80
1830;DHT22;914;48.118;11.600;2022-12-07T10:35:29;7.40;96.20
1830;DHT22;914;48.118;11.600;2022-12-07T10:37:58;7.50;96.10
1830;DHT22;914;48.118;11.600;2022-12-07T10:40:35;7.30;95.80
1830;DHT22;914;48.118;11.600;2022-12-07T10:48:59;7.30;95.50
1830;DHT22;914;48.118;11.600;2022-12-07T10:51:59;7.20;96.10
1830;DHT22;914;48.118;11.600;2022-12-07T10:55:05;7.20;96.00
1830;DHT22;914;48.118;11.600;2022-12-07T10:58:04;7.50;95.90
1830;DHT22;914;48.118;11.600;2022-12-07T11:00:55;7.60;95.90
1830;DHT22;914;48.118;11.600;2022-12-07T11:03:37;7.70;95.50
1830;DHT22;914;48.118;11.600;2022-12-07T11:06:31;7.90;95.10
1830;DHT22;914;48.118;11.600;2022-12-07T11:09:40;8.30;95.10
1830;DHT22;914;48.118;11.600;2022-12-07T11:12:16;8.70;94.00
1830;DHT22;914;48.118;11.600;2022-12-07T11:20:13;8.90;93.00
1830;DHT22;914;48.118;11.600;2022-12-07T11:22:51;8.90;92.90
1830;DHT22;914;48.118;11.600;2022-12-07T11:26:16;9.20;92.60
1830;DHT22;914;48.118;11.600;2022-12-07T11:31:47;9.50;91.60
1830;DHT22;914;48.118;11.600;2022-12-07T11:37:17;9.80;90.40
1830;DHT22;914;48.118;11.600;2022-12-07T11:39:51;9.50;90.10
1830;DHT22;914;48.118;11.600;2022-12-07T11:42:43;9.20;90.50
1830;DHT22;914;48.118;11.600;2022-12-07T11:50:44;8.70;91.00
1830;DHT22;914;48.118;11.600;2022-12-07T11:53:19;8.50;90.90
1830;DHT22;914;48.118;11.600;2022-12-07T11:56:11;8.80;90.10
1830;DHT22;914;48.118;11.600;2022-12-07T12:06:34;8.40;89.40
1830;DHT22;914;48.118;11.600;2022-12-07T12:09:17;8.70;88.10
1830;DHT22;914;48.118;11.600;2022-12-07T12:17:04;7.90;90.70
1830;DHT22;914;48.118;11.600;2022-12-07T12:22:42;8.20;90.50
1830;DHT22;914;48.118;11.600;2022-12-07T12:25:24;8.00;89.50
1830;DHT22;914;48.118;11.600;2022-12-07T12:27:52;8.00;91.70
1830;DHT22;914;48.118;11.600;2022-12-07T12:36:17;8.10;91.20
1830;DHT22;914;48.118;11.600;2022-12-07T12:52:00;7.80;92.40
1830;DHT22;914;48.118;11.600;2022-12-07T12:54:34;7.70;92.80
1830;DHT22;914;48.118;11.600;2022-12-07T12:57:11;7.60;93.10
1830;DHT22;914;48.118;11.600;2022-12-07T12:59:42;7.60;93.30
1830;DHT22;914;48.118;11.600;2022-12-07T13:13:28;7.50;93.80
1830;DHT22;914;48.118;11.600;2022-12-07T13:18:40;7.60;93.50
1830;DHT22;914;48.118;11.600;2022-12-07T13:28:51;7.90;92.90
1830;DHT22;914;48.118;11.600;2022-12-07T13:31:42;7.90;93.10
1830;DHT22;914;48.118;11.600;2022-12-07T13:34:38;8.00;92.90
1830;DHT22;914;48.118;11.600;2022-12-07T13:37:30;8.10;92.80
1830;DHT22;914;48.118;11.600;2022-12-07T13:40:21;8.20;93.10
1830;DHT22;914;48.118;11.600;2022-12-07T13:42:47;8.30;92.90
1830;DHT22;914;48.118;11.600;2022-12-07T13:45:25;8.50;92.20
1830;DHT22;914;48.118;11.600;2022-12-07T13:48:42;8.40;92.70
1830;DHT22;914;48.118;11.600;2022-12-07T13:51:22;8.30;92.90
1830;DHT22;914;48.118;11.600;2022-12-07T13:53:51;8.40;92.50
1830;DHT22;914;48.118;11.600;2022-12-07T13:56:17;8.40;92.20
1830;DHT22;914;48.118;11.600;2022-12-07T13:58:44;8.70;92.10
1830;DHT22;914;48.118;11.600;2022-12-07T14:01:10;8.40;92.10
1830;DHT22;914;48.118;11.600;2022-12-07T14:03:36;8.20;92.60
1830;DHT22;914;48.118;11.600;2022-12-07T14:06:24;8.00;92.60
1830;DHT22;914;48.118;11.600;2022-12-07T14:09:05;7.90;92.60
1830;DHT22;914;48.118;11.600;2022-12-07T14:11:31;7.90;92.70
1830;DHT22;914;48.118;11.600;2022-12-07T14:13:59;7.80;93.00
1830;DHT22;914;48.118;11.600;2022-12-07T14:16:36;7.70;93.40
1830;DHT22;914;48.118;11.600;2022-12-07T14:19:04;7.70;91.40
1830;DHT22;914;48.118;11.600;2022-12-07T14:21:33;7.80;92.00
1830;DHT22;914;48.118;11.600;2022-12-07T14:24:16;7.70;91.80
1830;DHT22;914;48.118;11.600;2022-12-07T14:26:43;7.90;91.60
1830;DHT22;914;48.118;11.600;2022-12-07T14:29:21;7.90;92.10
1830;DHT22;914;48.118;11.600;2022-12-07T14:31:47;7.80;92.70
1830;DHT22;914;48.118;11.600;2022-12-07T14:34:13;7.80;92.90
1830;DHT22;914;48.118;11.600;2022-12-07T14:36:39;7.80;92.80
1830;DHT22;914;48.118;11.600;2022-12-07T14:39:04;7.70;92.70
1830;DHT22;914;48.118;11.600;2022-12-07T14:41:30;7.60;92.90
1830;DHT22;914;48.118;11.600;2022-12-07T14:44:14;7.40;93.00
1830;DHT22;914;48.118;11.600;2022-12-07T14:46:40;7.60;93.10
1830;DHT22;914;48.118;11.600;2022-12-07T14:49:05;7.70;92.60
1830;DHT22;914;48.118;11.600;2022-12-07T14:51:32;7.70;93.00
1830;DHT22;914;48.118;11.600;2022-12-07T14:53:58;7.90;92.50
1830;DHT22;914;48.118;11.600;2022-12-07T14:56:24;7.80;92.70
1830;DHT22;914;48.118;11.600;2022-12-07T14:58:50;7.60;93.30
1830;DHT22;914;48.118;11.600;2022-12-07T15:01:16;7.40;93.10
1830;DHT22;914;48.118;11.600;2022-12-07T15:03:42;7.30;93.10
1830;DHT22;914;48.118;11.600;2022-12-07T15:06:13;7.10;93.50
1830;DHT22;914;48.118;11.600;2022-12-07T15:08:39;7.30;93.00
1830;DHT22;914;48.118;11.600;2022-12-07T15:11:05;7.20;92.90
1830;DHT22;914;48.118;11.600;2022-12-07T15:13:31;7.10;93.00
1830;DHT22;914;48.118;11.600;2022-12-07T15:16:19;7.30;92.80
1830;DHT22;914;48.118;11.600;2022-12-07T15:18:46;7.30;92.40
1830;DHT22;914;48.118;11.600;2022-12-07T15:21:15;7.20;93.00
1830;DHT22;914;48.118;11.600;2022-12-07T15:23:42;7.40;92.90
1830;DHT22;914;48.118;11.600;2022-12-07T15:26:09;7.40;92.60
1830;DHT22;914;48.118;11.600;2022-12-07T15:28:35;7.20;93.10
1830;DHT22;914;48.118;11.600;2022-12-07T15:31:01;7.10;93.30
1830;DHT22;914;48.118;11.600;2022-12-07T15:33:26;7.00;93.70
1830;DHT22;914;48.118;11.600;2022-12-07T15:35:52;6.90;94.10
1830;DHT22;914;48.118;11.600;2022-12-07T15:38:18;6.80;94.40
1830;DHT22;914;48.118;11.600;2022-12-07T15:40:46;6.80;94.70
1830;DHT22;914;48.118;11.600;2022-12-07T15:43:12;6.80;94.90
1830;DHT22;914;48.118;11.600;2022-12-07T15:45:56;7.00;94.70
1830;DHT22;914;48.118;11.600;2022-12-07T15:48:22;7.00;94.70
1830;DHT22;914;48.118;11.600;2022-12-07T15:50:48;6.90;94.90
1830;DHT22;914;48.118;11.600;2022-12-07T15:53:13;6.90;95.10
1830;DHT22;914;48.118;11.600;2022-12-07T15:55:39;7.00;94.70
1830;DHT22;914;48.118;11.600;2022-12-07T15:58:06;7.20;94.90
1830;DHT22;914;48.118;11.600;2022-12-07T16:00:31;7.10;94.60
1830;DHT22;914;48.118;11.600;2022-12-07T16:02:57;7.20;94.50
1830;DHT22;914;48.118;11.600;2022-12-07T16:05:23;7.20;94.70
1830;DHT22;914;48.118;11.600;2022-12-07T16:07:49;7.20;94.10
1830;DHT22;914;48.118;11.600;2022-12-07T16:10:14;7.00;94.40
1830;DHT22;914;48.118;11.600;2022-12-07T16:12:40;6.90;95.00
1830;DHT22;914;48.118;11.600;2022-12-07T16:15:06;6.70;95.30
1830;DHT22;914;48.118;11.600;2022-12-07T16:17:32;6.60;95.50
1830;DHT22;914;48.118;11.600;2022-12-07T16:19:57;6.80;95.60
1830;DHT22;914;48.118;11.600;2022-12-07T16:22:23;6.80;95.30
1830;DHT22;914;48.118;11.600;2022-12-07T16:24:49;6.60;95.50
1830;DHT22;914;48.118;11.600;2022-12-07T16:27:15;6.60;95.70
1830;DHT22;914;48.118;11.600;2022-12-07T16:29:41;6.50;95.80
1830;DHT22;914;48.118;11.600;2022-12-07T16:32:07;6.40;96.00
1830;DHT22;914;48.118;11.600;2022-12-07T16:34:33;6.50;96.10
1830;DHT22;914;48.118;11.600;2022-12-07T16:36:58;6.40;96.20
1830;DHT22;914;48.118;11.600;2022-12-07T16:39:24;6.40;96.40
1830;DHT22;914;48.118;11.600;2022-12-07T16:41:50;6.40;96.40
1830;DHT22;914;48.118;11.600;2022-12-07T16:44:16;6.40;96.40
1830;DHT22;914;48.118;11.600;2022-12-07T16:46:42;6.50;96.60
1830;DHT22;914;48.118;11.600;2022-12-07T16:49:14;6.60;95.90
1830;DHT22;914;48.118;11.600;2022-12-07T16:51:41;6.50;96.10
1830;DHT22;914;48.118;11.600;2022-12-07T16:54:12;6.50;96.40
1830;DHT22;914;48.118;11.600;2022-12-07T16:56:38;6.50;96.40
1830;DHT22;914;48.118;11.600;2022-12-07T16:59:04;6.40;96.80
1830;DHT22;914;48.118;11.600;2022-12-07T17:01:30;6.40;96.50
1830;DHT22;914;48.118;11.600;2022-12-07T17:03:58;6.40;96.50
1830;DHT22;914;48.118;11.600;2022-12-07T17:06:25;6.40;96.60
1830;DHT22;914;48.118;11.600;2022-12-07T17:08:53;6.50;96.70
1830;DHT22;914;48.118;11.600;2022-12-07T17:11:22;6.40;96.50
1830;DHT22;914;48.118;11.600;2022-12-07T17:13:48;6.40;96.50
1830;DHT22;914;48.118;11.600;2022-12-07T17:16:33;6.40;96.40
1830;DHT22;914;48.118;11.600;2022-12-07T17:19:06;6.30;96.30
1830;DHT22;914;48.118;11.600;2022-12-07T17:21:33;6.30;96.10
1830;DHT22;914;48.118;11.600;2022-12-07T17:23:59;6.20;96.10
1830;DHT22;914;48.118;11.600;2022-12-07T17:26:27;6.30;96.20
1830;DHT22;914;48.118;11.600;2022-12-07T17:28:53;6.20;96.10
1830;DHT22;914;48.118;11.600;2022-12-07T17:31:21;6.20;96.40
1830;DHT22;914;48.118;11.600;2022-12-07T17:33:47;6.30;96.20
1830;DHT22;914;48.118;11.600;2022-12-07T17:36:21;6.40;95.50
1830;DHT22;914;48.118;11.600;2022-12-07T17:38:48;6.20;95.80
1830;DHT22;914;48.118;11.600;2022-12-07T17:41:22;6.10;95.70
1830;DHT22;914;48.118;11.600;2022-12-07T17:44:09;6.00;96.00
1830;DHT22;914;48.118;11.600;2022-12-07T17:46:36;5.90;96.30
1830;DHT22;914;48.118;11.600;2022-12-07T17:49:02;5.80;96.20
1830;DHT22;914;48.118;11.600;2022-12-07T17:51:29;5.90;95.90
1830;DHT22;914;48.118;11.600;2022-12-07T17:54:14;5.80;95.90
1830;DHT22;914;48.118;11.600;2022-12-07T17:56:40;5.80;96.30
1830;DHT22;914;48.118;11.600;2022-12-07T17:59:06;5.80;96.40
1830;DHT22;914;48.118;11.600;2022-12-07T18:01:32;5.50;95.80
1830;DHT22;914;48.118;11.600;2022-12-07T18:03:58;5.40;96.10
1830;DHT22;914;48.118;11.600;2022-12-07T18:06:24;5.50;96.30
1830;DHT22;914;48.118;11.600;2022-12-07T18:08:50;5.60;96.70
1830;DHT22;914;48.118;11.600;2022-12-07T18:11:16;5.50;96.30
1830;DHT22;914;48.118;11.600;2022-12-07T18:13:41;5.60;96.20
1830;DHT22;914;48.118;11.600;2022-12-07T18:16:10;5.70;96.10
1830;DHT22;914;48.118;11.600;2022-12-07T18:18:38;5.60;96.20
1830;DHT22;914;48.118;11.600;2022-12-07T18:21:08;5.70;96.50
1830;DHT22;914;48.118;11.600;2022-12-07T18:23:34;5.40;95.30
1830;DHT22;914;48.118;11.600;2022-12-07T18:26:00;5.30;96.10
1830;DHT22;914;48.118;11.600;2022-12-07T18:28:26;5.50;96.70
1830;DHT22;914;48.118;11.600;2022-12-07T18:30:53;5.70;96.60
1830;DHT22;914;48.118;11.600;2022-12-07T18:33:19;5.80;96.20
1830;DHT22;914;48.118;11.600;2022-12-07T18:35:46;5.80;96.30
1830;DHT22;914;48.118;11.600;2022-12-07T18:38:16;5.90;95.80